Andover, SD

1:33 AM CDT on August 31, 2016 (GMT -0500)
APRSWXNET | | Change Station

Elev 1315 ft 45.44 °N, 98.09 °W | Updated 31 minutes ago

Mostly Cloudy
Mostly Cloudy
63 °F
Feels Like 63 °F
N
1
Wind Variable Wind from ENE
Gusts 4.0 mph

Today
High -- | Low -- °F
--% Chance of Precip.
Yesterday
High -- | Low -- °F
Precip. -- in
Pressure 30.19 in
Visibility 10.0 miles
Clouds Mostly Cloudy 8000 ft
Dew Point 57 °F
Humidity 82%
Rainfall in
Snow Depth Not available.
6:52 AM 8:10 PM
Waning Crescent, 1% visible
METAR KABR 310553Z AUTO 00000KT 10SM BKN080 18/13 A3020 RMK AO2 SLP221 T01780128 10256 20172 402940117 53003
Pressure 30.19 in
Visibility 10.0 miles
Clouds Mostly Cloudy 8000 ft
Dew Point 57 °F
Humidity 82%
Rainfall in
Snow Depth Not available.
6:52 AM 8:10 PM
Waning Crescent, 1% visible
METAR KABR 310553Z AUTO 00000KT 10SM BKN080 18/13 A3020 RMK AO2 SLP221 T01780128 10256 20172 402940117 53003

10-Day Weather Forecast

Almanac

Astronomy

Aug. 31, 2016 Rise Set
Actual Time
Civil Twilight
Nautical Twilight
Astronomical Twilight
Moon
Length of Visible Light
Length of Day
Tomorrow will be .
, % of the Moon is Illuminated

Today's Extremes

State Highs State Lows

Community

WunderPhotos

Upload Photos

1,936,040 photos uploaded!

WunderBlog® & News

Nearby

Air Quality

  Air Quality AQ Index Pollutant
Not available.

Snow Depth

Station Depth Elevation

Earthquake Activity

City Distance Mag. Time & Date
Minimum magnitude displayed is 2.5.

Coastal Water Temperatures

Place Temperature

Stations

Nearby Weather Stations

Station Location Temp. Windchill Dew Point Humidity Wind Precip. Elev Updated Type
                   

Watches & Warnings

There are currently no watches in effect.